Time;durP1;ratioP1;P1;durP2;ratioP2;P2;SDS_P1;SDS_P2;PMS_P1;PMS_P2;Temp;Humidity;BMP_temperature;BMP_pressure;BME280_temperature;BME280_humidity;BME280_pressure;Samples;Min_cycle;Max_cycle;Signal;HPM_P1;HPM_P2
2021/08/04 00:00:48;;;;;;;3.60;2.60;;;16.90;99.90;;;;;;3603005;39;20221;-82
2021/08/04 00:03:15;;;;;;;3.95;1.98;;;16.90;99.90;;;;;;3594202;40;20254;-81
2021/08/04 00:05:42;;;;;;;4.75;2.42;;;16.90;99.90;;;;;;3594416;40;20235;-77
2021/08/04 00:08:09;;;;;;;3.92;2.28;;;16.80;99.90;;;;;;3602847;40;20698;-78
2021/08/04 00:10:37;;;;;;;2.45;2.00;;;17.00;99.90;;;;;;3602902;39;20234;-83
2021/08/04 00:13:04;;;;;;;3.05;2.45;;;17.10;99.90;;;;;;3602894;40;20778;-79
2021/08/04 00:15:31;;;;;;;2.08;1.92;;;17.20;99.90;;;;;;3602699;40;20218;-78
2021/08/04 00:17:58;;;;;;;2.72;2.25;;;17.10;99.90;;;;;;3594030;40;20254;-76
2021/08/04 00:20:25;;;;;;;2.90;2.10;;;17.30;99.90;;;;;;3599734;40;20242;-80
2021/08/04 00:22:52;;;;;;;5.15;2.20;;;17.20;99.90;;;;;;3592667;40;20239;-79
2021/08/04 00:25:19;;;;;;;5.70;2.35;;;17.20;99.90;;;;;;3584038;40;20277;-79
2021/08/04 00:27:48;;;;;;;5.85;2.95;;;17.00;99.90;;;;;;3592568;40;20238;-78
2021/08/04 00:30:15;;;;;;;3.95;2.63;;;17.00;99.90;;;;;;3583970;40;20531;-78
2021/08/04 00:32:42;;;;;;;2.90;2.42;;;17.10;99.90;;;;;;3592754;40;20750;-78
2021/08/04 00:35:10;;;;;;;2.88;2.67;;;17.30;99.90;;;;;;3584019;40;20250;-83
2021/08/04 00:37:38;;;;;;;3.35;2.30;;;17.20;99.90;;;;;;3583963;40;20263;-80
2021/08/04 00:40:06;;;;;;;2.47;2.30;;;17.00;99.90;;;;;;3591789;40;20234;-78
2021/08/04 00:42:35;;;;;;;3.70;2.58;;;17.00;99.90;;;;;;3602285;39;20784;-79
2021/08/04 00:45:04;;;;;;;2.72;2.45;;;17.00;99.90;;;;;;3602674;40;20237;-78
2021/08/04 00:47:31;;;;;;;5.95;3.58;;;17.10;99.90;;;;;;3593831;40;20234;-78
2021/08/04 00:50:00;;;;;;;2.92;2.72;;;17.20;99.90;;;;;;3594038;40;20258;-78
2021/08/04 00:52:27;;;;;;;2.90;2.60;;;17.40;99.90;;;;;;3593913;40;20242;-78
2021/08/04 00:54:54;;;;;;;4.68;2.92;;;17.60;99.90;;;;;;3593916;40;20230;-79
2021/08/04 00:57:21;;;;;;;3.10;2.28;;;17.70;99.90;;;;;;3593772;40;20247;-79
2021/08/04 01:00:06;;;;;;;2.75;2.55;;;17.60;99.90;;;;;;3594823;40;20222;-77
2021/08/04 01:02:39;;;;;;;2.92;2.50;;;17.80;99.90;;;;;;3593669;40;20238;-81
2021/08/04 01:05:09;;;;;;;2.60;2.40;;;17.60;99.90;;;;;;3593322;40;20301;-79
2021/08/04 01:07:41;;;;;;;3.88;2.58;;;17.50;99.90;;;;;;3593374;40;20226;-78
2021/08/04 01:10:12;;;;;;;4.60;2.55;;;17.40;99.90;;;;;;3602540;40;20321;-79
2021/08/04 01:12:45;;;;;;;3.28;2.85;;;17.40;99.90;;;;;;3593944;40;20306;-77
2021/08/04 01:15:15;;;;;;;3.83;2.95;;;17.40;99.90;;;;;;3593833;40;20238;-78
2021/08/04 01:17:48;;;;;;;3.65;2.45;;;17.30;99.90;;;;;;3602362;40;20250;-78
2021/08/04 01:20:20;;;;;;;2.70;2.00;;;17.30;99.90;;;;;;3585416;40;20238;-82
2021/08/04 01:23:16;;;;;;;4.28;2.60;;;17.30;99.90;;;;;;3602463;40;20266;-79
2021/08/04 01:25:52;;;;;;;5.50;2.38;;;17.50;99.90;;;;;;3603695;39;20877;-78
2021/08/04 01:28:26;;;;;;;2.75;2.45;;;17.50;99.90;;;;;;3593051;40;20305;-79
2021/08/04 01:30:59;;;;;;;3.47;2.10;;;17.50;99.90;;;;;;3602376;40;20229;-78
2021/08/04 01:33:29;;;;;;;2.50;2.22;;;17.40;99.90;;;;;;3601995;40;20776;-78
2021/08/04 01:35:57;;;;;;;5.43;2.83;;;17.40;99.90;;;;;;3593680;40;20241;-78
2021/08/04 01:38:25;;;;;;;4.47;2.30;;;17.40;99.90;;;;;;3593429;40;20246;-78
2021/08/04 01:40:54;;;;;;;3.33;3.03;;;17.40;99.90;;;;;;3593597;40;20221;-78
2021/08/04 01:43:24;;;;;;;4.15;2.72;;;17.40;99.90;;;;;;3602189;40;20245;-78
2021/08/04 01:45:53;;;;;;;5.93;2.60;;;17.40;99.90;;;;;;3593668;40;20230;-78
2021/08/04 01:48:22;;;;;;;2.83;2.35;;;17.20;99.90;;;;;;3593358;40;20296;-80
2021/08/04 01:50:50;;;;;;;3.70;2.58;;;17.00;99.90;;;;;;3602205;40;20240;-81
2021/08/04 01:53:17;;;;;;;3.88;2.58;;;17.00;99.90;;;;;;3603441;40;20272;-78
2021/08/04 01:55:44;;;;;;;2.78;2.58;;;17.00;99.90;;;;;;3594952;40;20652;-78
2021/08/04 01:58:11;;;;;;;2.85;2.63;;;16.90;99.90;;;;;;3595005;40;20241;-79
2021/08/04 02:00:40;;;;;;;2.53;2.33;;;16.90;99.90;;;;;;3603422;39;20230;-79
2021/08/04 02:03:07;;;;;;;4.13;2.92;;;16.80;99.90;;;;;;3594929;40;20291;-83
2021/08/04 02:05:35;;;;;;;4.60;2.33;;;16.80;99.90;;;;;;3594947;40;20719;-78
2021/08/04 02:08:10;;;;;;;3.70;2.25;;;16.90;99.90;;;;;;3603192;40;20246;-78
2021/08/04 02:10:46;;;;;;;3.22;2.85;;;17.00;99.90;;;;;;3603716;40;20255;-79
2021/08/04 02:13:23;;;;;;;2.45;2.25;;;17.10;99.90;;;;;;3595041;40;20230;-78
2021/08/04 02:15:57;;;;;;;3.70;2.63;;;17.10;99.90;;;;;;3594881;40;20222;-77
2021/08/04 02:18:30;;;;;;;2.50;2.25;;;17.00;99.90;;;;;;3594738;40;20241;-78
2021/08/04 02:21:01;;;;;;;5.30;2.75;;;16.90;99.90;;;;;;3581228;40;20255;-77
2021/08/04 02:23:34;;;;;;;4.55;2.80;;;16.80;99.90;;;;;;3593384;40;20247;-81
2021/08/04 02:26:06;;;;;;;5.63;3.08;;;16.80;99.90;;;;;;3593440;40;20235;-79
2021/08/04 02:28:37;;;;;;;3.08;2.78;;;16.70;99.90;;;;;;3593426;40;20246;-78
2021/08/04 02:31:07;;;;;;;5.57;3.05;;;16.70;99.90;;;;;;3593289;40;20235;-78
2021/08/04 02:33:34;;;;;;;7.35;3.25;;;16.60;99.90;;;;;;3584844;40;20259;-79
2021/08/04 02:36:02;;;;;;;4.22;3.05;;;16.60;99.90;;;;;;3594086;40;20244;-77
2021/08/04 02:38:30;;;;;;;3.22;2.75;;;16.70;99.90;;;;;;3596207;40;20215;-79
2021/08/04 02:40:58;;;;;;;5.25;3.25;;;16.60;99.90;;;;;;3605048;40;20770;-81
2021/08/04 02:43:26;;;;;;;6.40;2.78;;;16.50;99.90;;;;;;3613551;40;20246;-78
2021/08/04 02:45:56;;;;;;;2.85;2.53;;;16.50;99.90;;;;;;3604890;40;20241;-83
2021/08/04 02:48:25;;;;;;;4.03;2.88;;;16.50;99.90;;;;;;3596353;40;20790;-79
2021/08/04 02:50:54;;;;;;;3.10;2.75;;;16.50;99.90;;;;;;3604847;40;20230;-79
2021/08/04 02:53:21;;;;;;;3.45;3.03;;;16.40;99.90;;;;;;3613537;40;20233;-78
2021/08/04 02:55:51;;;;;;;2.90;2.70;;;16.50;99.90;;;;;;3604763;40;20267;-78
2021/08/04 02:58:18;;;;;;;5.57;2.65;;;16.40;99.90;;;;;;3613348;40;20245;-78
2021/08/04 03:00:46;;;;;;;3.20;2.90;;;16.40;99.90;;;;;;3604866;40;20238;-78
2021/08/04 03:03:13;;;;;;;3.67;3.13;;;16.40;99.90;;;;;;3613060;39;20226;-77
2021/08/04 03:05:41;;;;;;;6.25;3.47;;;16.50;99.90;;;;;;3604664;40;20230;-78
2021/08/04 03:08:08;;;;;;;3.15;2.30;;;16.50;99.90;;;;;;3613190;40;20234;-78
2021/08/04 03:10:36;;;;;;;2.97;2.67;;;16.40;99.90;;;;;;3596328;40;20229;-78
2021/08/04 03:13:03;;;;;;;6.15;2.92;;;16.50;99.90;;;;;;3613377;40;20236;-78
2021/08/04 03:15:33;;;;;;;4.93;3.60;;;16.40;99.90;;;;;;3613392;40;20241;-81
2021/08/04 03:18:00;;;;;;;3.92;3.22;;;16.40;99.90;;;;;;3604405;40;20241;-82
2021/08/04 03:20:27;;;;;;;4.25;2.83;;;16.50;99.90;;;;;;3610118;40;20246;-86
2021/08/04 03:22:56;;;;;;;3.40;3.10;;;16.40;99.90;;;;;;3603070;40;20229;-78
2021/08/04 03:25:23;;;;;;;11.02;4.15;;;16.30;99.90;;;;;;3603118;40;20206;-76
2021/08/04 03:27:50;;;;;;;5.05;2.72;;;16.50;99.90;;;;;;3603027;40;20234;-79
2021/08/04 03:30:17;;;;;;;4.05;3.47;;;16.50;99.90;;;;;;3599136;39;20222;-82
2021/08/04 03:32:44;;;;;;;3.47;2.95;;;16.50;99.90;;;;;;3613235;39;20241;-77
2021/08/04 03:35:12;;;;;;;4.80;3.85;;;16.40;99.90;;;;;;3613240;39;20229;-83
2021/08/04 03:37:41;;;;;;;2.95;2.75;;;16.40;99.90;;;;;;3613096;39;20245;-82
2021/08/04 03:40:12;;;;;;;3.55;3.25;;;16.50;99.90;;;;;;3604396;39;20222;-79
2021/08/04 03:42:39;;;;;;;3.60;2.90;;;16.40;99.90;;;;;;3613306;39;20237;-79
2021/08/04 03:45:06;;;;;;;4.13;3.20;;;16.30;99.90;;;;;;3613077;39;20222;-79
2021/08/04 03:47:34;;;;;;;3.38;3.15;;;16.30;99.90;;;;;;3613133;39;20237;-77
2021/08/04 03:50:01;;;;;;;5.47;3.40;;;16.30;99.90;;;;;;3613093;39;20489;-79
2021/08/04 03:52:28;;;;;;;3.53;3.17;;;16.30;99.90;;;;;;3604445;39;20237;-78
2021/08/04 03:54:54;;;;;;;4.47;3.33;;;16.30;99.90;;;;;;3604385;39;20226;-82
2021/08/04 03:57:23;;;;;;;3.85;3.53;;;16.40;99.90;;;;;;3612984;39;20222;-78
2021/08/04 03:59:50;;;;;;;4.03;3.55;;;16.30;99.90;;;;;;3613123;39;20282;-78
2021/08/04 04:02:18;;;;;;;3.80;3.50;;;16.30;99.90;;;;;;3613101;39;20272;-79
2021/08/04 04:04:45;;;;;;;3.47;3.10;;;16.50;99.90;;;;;;3595738;39;20253;-79
2021/08/04 04:07:13;;;;;;;3.65;3.10;;;16.40;99.90;;;;;;3612933;39;20249;-79
2021/08/04 04:09:40;;;;;;;3.78;3.47;;;16.30;99.90;;;;;;3613098;39;20213;-78
2021/08/04 04:12:07;;;;;;;4.15;3.80;;;16.30;99.90;;;;;;3613041;39;20241;-81
2021/08/04 04:14:36;;;;;;;3.78;3.47;;;16.30;99.90;;;;;;3613004;39;20241;-77
2021/08/04 04:17:04;;;;;;;4.85;3.72;;;16.40;99.90;;;;;;3612887;39;20230;-77
2021/08/04 04:19:31;;;;;;;5.40;3.38;;;16.60;99.90;;;;;;3613080;39;20245;-78
2021/08/04 04:21:58;;;;;;;5.13;4.13;;;16.60;99.90;;;;;;3603475;39;20230;-78
2021/08/04 04:24:25;;;;;;;5.18;3.42;;;16.80;99.90;;;;;;3602747;40;20248;-78
2021/08/04 04:26:52;;;;;;;5.00;3.75;;;16.70;99.90;;;;;;3600810;40;20230;-82
2021/08/04 04:29:20;;;;;;;4.53;4.10;;;16.80;99.90;;;;;;3602669;39;20251;-77
2021/08/04 04:31:48;;;;;;;6.85;4.75;;;17.00;99.90;;;;;;3602690;39;20226;-77
2021/08/04 04:34:16;;;;;;;4.65;4.25;;;17.00;99.90;;;;;;3602654;39;20870;-77
2021/08/04 04:36:43;;;;;;;4.60;4.22;;;17.00;99.90;;;;;;3602448;39;20242;-80
2021/08/04 04:39:10;;;;;;;7.03;3.50;;;16.80;99.90;;;;;;3598161;39;20240;-77
2021/08/04 04:41:37;;;;;;;5.93;3.88;;;16.70;99.90;;;;;;3592691;40;20234;-77
2021/08/04 04:44:04;;;;;;;4.82;3.67;;;16.70;99.90;;;;;;3592608;40;20777;-77
2021/08/04 04:46:31;;;;;;;3.92;3.63;;;16.50;99.90;;;;;;3575455;40;20235;-78
2021/08/04 04:49:00;;;;;;;4.47;4.07;;;16.60;99.90;;;;;;3592602;40;20235;-82
2021/08/04 04:51:27;;;;;;;4.18;3.72;;;16.70;99.90;;;;;;3592520;40;20227;-79
2021/08/04 04:53:54;;;;;;;4.15;3.75;;;16.90;99.90;;;;;;3592720;40;20227;-77
2021/08/04 04:56:21;;;;;;;4.85;4.18;;;17.10;99.90;;;;;;3592411;40;20725;-77
2021/08/04 04:58:48;;;;;;;5.85;4.75;;;17.20;99.90;;;;;;3592585;40;20227;-78
2021/08/04 05:01:15;;;;;;;4.32;3.92;;;17.30;99.90;;;;;;3583926;40;20241;-78
2021/08/04 05:03:42;;;;;;;4.18;3.88;;;17.30;99.90;;;;;;3583862;40;20230;-77
2021/08/04 05:06:11;;;;;;;5.47;4.63;;;17.10;99.90;;;;;;3592459;40;20296;-76
2021/08/04 05:08:38;;;;;;;4.47;4.05;;;17.20;99.90;;;;;;3592314;40;20247;-78
2021/08/04 05:11:05;;;;;;;6.40;4.70;;;17.20;99.90;;;;;;3592533;40;20234;-78
2021/08/04 05:13:32;;;;;;;4.30;3.97;;;17.20;99.90;;;;;;3592148;40;20218;-78
2021/08/04 05:15:59;;;;;;;4.57;4.13;;;17.30;99.90;;;;;;3583697;40;20230;-77
2021/08/04 05:18:26;;;;;;;4.45;4.07;;;17.10;99.90;;;;;;3583504;40;20249;-77
2021/08/04 05:20:53;;;;;;;5.45;4.25;;;17.30;99.90;;;;;;3583528;40;20211;-79
2021/08/04 05:23:22;;;;;;;4.38;3.50;;;17.40;99.90;;;;;;3573835;40;20252;-81
2021/08/04 05:25:49;;;;;;;5.38;3.90;;;17.20;99.90;;;;;;3580812;40;20255;-78
2021/08/04 05:28:17;;;;;;;3.92;3.63;;;17.30;99.90;;;;;;3592232;40;20247;-77
2021/08/04 05:30:44;;;;;;;10.65;4.90;;;17.40;99.90;;;;;;3592309;40;20219;-77
2021/08/04 05:33:11;;;;;;;6.47;4.07;;;17.30;99.90;;;;;;3592304;40;20267;-77
2021/08/04 05:35:38;;;;;;;4.78;4.20;;;17.30;99.90;;;;;;3592237;40;20765;-78
2021/08/04 05:38:05;;;;;;;6.25;4.38;;;17.30;99.90;;;;;;3583499;40;20242;-78
2021/08/04 05:40:33;;;;;;;5.85;4.03;;;17.30;99.90;;;;;;3591812;40;20484;-79
2021/08/04 05:43:00;;;;;;;6.15;5.00;;;17.30;99.90;;;;;;3592311;40;20227;-77
2021/08/04 05:45:30;;;;;;;6.78;4.63;;;17.20;99.90;;;;;;3591811;40;20247;-79
2021/08/04 05:47:57;;;;;;;5.38;3.95;;;17.30;99.90;;;;;;3583358;40;20315;-77
2021/08/04 05:50:25;;;;;;;6.63;4.88;;;17.30;99.90;;;;;;3592046;40;20223;-77
2021/08/04 05:52:52;;;;;;;5.50;3.67;;;17.30;99.90;;;;;;3592121;40;20238;-80
2021/08/04 05:55:22;;;;;;;4.45;3.47;;;17.10;99.90;;;;;;3592683;40;20273;-77
2021/08/04 05:57:51;;;;;;;5.55;4.15;;;17.10;99.90;;;;;;3591642;40;20261;-79
2021/08/04 06:00:19;;;;;;;4.10;3.55;;;17.30;99.90;;;;;;3592042;40;20250;-78
2021/08/04 06:02:46;;;;;;;4.22;3.88;;;17.30;99.90;;;;;;3591967;40;20223;-77
2021/08/04 06:05:13;;;;;;;5.13;3.67;;;17.40;99.90;;;;;;3591951;40;20230;-78
2021/08/04 06:07:42;;;;;;;4.97;3.47;;;17.50;99.90;;;;;;3591936;40;20296;-78
2021/08/04 06:10:12;;;;;;;3.80;3.40;;;17.80;99.90;;;;;;3591937;40;20246;-78
2021/08/04 06:12:44;;;;;;;3.60;2.97;;;18.00;99.90;;;;;;3591949;40;20255;-79
2021/08/04 06:15:13;;;;;;;4.03;3.22;;;18.00;99.90;;;;;;3583379;40;20246;-82
2021/08/04 06:17:40;;;;;;;3.88;3.58;;;18.00;99.90;;;;;;3591704;40;20296;-79
2021/08/04 06:20:08;;;;;;;3.47;3.17;;;17.80;99.90;;;;;;3591871;40;20223;-77
2021/08/04 06:22:35;;;;;;;5.45;3.50;;;17.80;99.90;;;;;;3576010;40;20246;-79
2021/08/04 06:25:03;;;;;;;5.22;3.78;;;18.00;99.90;;;;;;3581690;40;20674;-78
2021/08/04 06:27:30;;;;;;;4.45;2.90;;;18.10;99.90;;;;;;3581694;40;20247;-77
2021/08/04 06:29:57;;;;;;;3.28;3.08;;;18.00;99.90;;;;;;3581953;40;20713;-77
2021/08/04 06:32:25;;;;;;;6.18;3.45;;;18.00;99.90;;;;;;3581796;40;20288;-77
2021/08/04 06:34:52;;;;;;;3.22;2.67;;;17.90;99.90;;;;;;3581845;40;20246;-79
2021/08/04 06:37:19;;;;;;;4.10;3.63;;;18.00;99.90;;;;;;3584706;40;20223;-77
2021/08/04 06:39:46;;;;;;;3.17;2.88;;;18.10;99.90;;;;;;3594213;40;20838;-80
2021/08/04 06:42:14;;;;;;;3.03;2.72;;;18.00;99.90;;;;;;3601337;40;20245;-79
2021/08/04 06:44:41;;;;;;;3.40;3.10;;;17.90;99.90;;;;;;3593222;40;20243;-78
2021/08/04 06:47:08;;;;;;;4.85;3.20;;;18.00;99.90;;;;;;3597041;40;20812;-79
2021/08/04 06:49:36;;;;;;;3.10;2.90;;;18.10;99.90;;;;;;3603332;40;20288;-79
2021/08/04 06:52:05;;;;;;;7.60;4.35;;;17.90;99.90;;;;;;3598287;40;20214;-82
2021/08/04 06:54:33;;;;;;;7.00;3.42;;;17.90;99.90;;;;;;3602918;40;20211;-79
2021/08/04 06:57:00;;;;;;;5.35;3.65;;;18.20;99.90;;;;;;3600174;40;20996;-80
2021/08/04 06:59:27;;;;;;;6.78;3.25;;;18.00;99.90;;;;;;3596656;40;20239;-79
2021/08/04 07:01:54;;;;;;;4.18;3.78;;;18.00;99.90;;;;;;3603230;40;20242;-77
2021/08/04 07:04:21;;;;;;;3.83;3.42;;;17.90;99.90;;;;;;3598312;40;20242;-79
2021/08/04 07:06:53;;;;;;;6.00;3.40;;;17.90;99.90;;;;;;3595770;40;20364;-78
2021/08/04 07:09:20;;;;;;;5.30;4.13;;;18.00;99.90;;;;;;3596052;40;20227;-79
2021/08/04 07:11:47;;;;;;;3.85;3.50;;;18.10;99.90;;;;;;3600717;40;20241;-79
2021/08/04 07:14:15;;;;;;;4.20;3.78;;;18.10;99.90;;;;;;3601364;40;20660;-78
2021/08/04 07:16:42;;;;;;;3.72;3.42;;;18.30;99.90;;;;;;3592485;40;20234;-83
2021/08/04 07:19:10;;;;;;;4.32;3.88;;;18.10;99.90;;;;;;3596992;40;20231;-79
2021/08/04 07:21:37;;;;;;;3.90;3.60;;;18.20;99.90;;;;;;3592671;40;20235;-78
2021/08/04 07:24:06;;;;;;;4.50;3.95;;;18.10;99.90;;;;;;3592509;40;20241;-78
2021/08/04 07:26:33;;;;;;;4.05;3.30;;;18.10;99.90;;;;;;3583736;40;20243;-82
2021/08/04 07:29:00;;;;;;;3.72;3.33;;;18.10;99.90;;;;;;3598407;40;20257;-80
2021/08/04 07:31:28;;;;;;;3.88;3.58;;;18.20;99.90;;;;;;3602472;40;20222;-78
2021/08/04 07:33:55;;;;;;;3.70;2.72;;;18.30;99.90;;;;;;3593558;40;20214;-78
2021/08/04 07:36:22;;;;;;;4.63;3.20;;;18.10;99.90;;;;;;3602324;40;20219;-87
2021/08/04 07:38:50;;;;;;;4.75;3.17;;;18.10;99.90;;;;;;3599231;40;20242;-79
2021/08/04 07:41:18;;;;;;;3.63;3.28;;;18.10;99.90;;;;;;3592606;40;20240;-83
2021/08/04 07:43:45;;;;;;;6.38;3.70;;;18.00;99.90;;;;;;3592436;40;20250;-82
2021/08/04 07:46:13;;;;;;;4.32;3.40;;;18.40;99.90;;;;;;3592003;40;20296;-80
2021/08/04 07:48:40;;;;;;;4.35;3.70;;;18.70;99.90;;;;;;3592048;40;20223;-81
2021/08/04 07:51:07;;;;;;;4.38;3.33;;;18.80;99.90;;;;;;3592413;40;20856;-79
2021/08/04 07:53:34;;;;;;;3.90;3.60;;;18.50;99.90;;;;;;3622396;23;20580;-42
2021/08/04 07:56:01;;;;;;;6.45;3.22;;;18.50;99.90;;;;;;3583593;40;20242;-43
2021/08/04 07:58:29;;;;;;;3.55;3.25;;;18.50;99.90;;;;;;3587198;40;20230;-42
2021/08/04 08:00:56;;;;;;;4.10;3.13;;;18.40;99.90;;;;;;3586502;40;20246;-42
2021/08/04 08:03:23;;;;;;;5.72;3.70;;;18.40;99.90;;;;;;3587637;40;20237;-43
2021/08/04 08:05:50;;;;;;;5.70;3.55;;;18.40;99.90;;;;;;3588354;40;20243;-42
2021/08/04 08:08:17;;;;;;;3.42;3.08;;;18.60;99.90;;;;;;3616770;22;20251;-43
2021/08/04 08:10:47;;;;;;;4.50;3.50;;;18.60;99.90;;;;;;3577598;40;20270;-42
2021/08/04 08:13:14;;;;;;;2.90;2.70;;;18.90;99.90;;;;;;3578169;40;20245;-43
2021/08/04 08:15:42;;;;;;;5.68;3.47;;;18.80;99.90;;;;;;3573531;40;20239;-42
2021/08/04 08:18:10;;;;;;;3.60;3.30;;;18.90;99.90;;;;;;3577834;40;20247;-42
2021/08/04 08:20:38;;;;;;;3.90;3.60;;;19.10;99.90;;;;;;3568879;40;20252;-42
2021/08/04 08:23:05;;;;;;;2.75;2.53;;;19.20;99.90;;;;;;3578210;40;20602;-45
2021/08/04 08:25:33;;;;;;;4.75;2.95;;;18.90;99.90;;;;;;3578365;40;20238;-43
2021/08/04 08:28:01;;;;;;;4.15;3.30;;;18.60;99.90;;;;;;3577399;40;20235;-42
2021/08/04 08:30:28;;;;;;;3.00;2.70;;;18.60;99.90;;;;;;3582251;40;20239;-42
2021/08/04 08:32:57;;;;;;;3.75;3.38;;;18.80;99.90;;;;;;3577579;40;20615;-42
2021/08/04 08:35:24;;;;;;;3.17;2.88;;;18.60;99.90;;;;;;3577929;40;20234;-43
2021/08/04 08:37:51;;;;;;;3.35;2.83;;;18.80;99.90;;;;;;3577707;40;20243;-42
2021/08/04 08:40:19;;;;;;;5.03;3.55;;;19.00;99.90;;;;;;3579102;40;20253;-42
2021/08/04 08:42:46;;;;;;;3.15;2.90;;;18.70;99.90;;;;;;3578236;40;20246;-42
2021/08/04 08:45:13;;;;;;;2.80;2.60;;;18.90;99.90;;;;;;3578244;40;20249;-42
2021/08/04 08:47:41;;;;;;;6.20;3.47;;;18.90;99.90;;;;;;3578378;40;20259;-43
2021/08/04 08:50:11;;;;;;;11.60;3.33;;;19.20;99.90;;;;;;3577612;40;20389;-42
2021/08/04 08:52:38;;;;;;;3.42;2.70;;;19.10;99.90;;;;;;3578094;40;20265;-43
2021/08/04 08:55:08;;;;;;;5.68;3.08;;;18.80;99.90;;;;;;3578137;40;20239;-43
2021/08/04 08:57:36;;;;;;;3.20;2.90;;;19.20;99.90;;;;;;3578073;40;20626;-42
2021/08/04 09:00:04;;;;;;;4.40;3.58;;;19.00;99.90;;;;;;3577910;40;20298;-43
2021/08/04 09:02:32;;;;;;;5.65;3.85;;;19.10;99.90;;;;;;3578893;40;20235;-43
2021/08/04 09:05:02;;;;;;;4.90;3.58;;;19.30;99.90;;;;;;3577666;40;20245;-42
2021/08/04 09:07:35;;;;;;;4.50;3.70;;;19.10;99.90;;;;;;3577334;40;20311;-42
2021/08/04 09:10:04;;;;;;;3.95;3.50;;;19.10;99.90;;;;;;3578263;40;20553;-43
2021/08/04 09:12:31;;;;;;;3.50;3.20;;;19.40;99.90;;;;;;3577619;40;20250;-42
2021/08/04 09:14:58;;;;;;;4.35;3.65;;;19.20;99.90;;;;;;3577558;40;20501;-43
2021/08/04 09:17:25;;;;;;;5.88;3.25;;;19.30;99.90;;;;;;3579226;40;20251;-42
2021/08/04 09:19:52;;;;;;;5.68;3.63;;;19.60;99.90;;;;;;3577728;40;20243;-43
2021/08/04 09:22:22;;;;;;;3.20;3.00;;;19.80;99.90;;;;;;3577306;40;20660;-43
2021/08/04 09:25:01;;;;;;;4.63;3.50;;;20.00;99.90;;;;;;3568522;40;20837;-42
2021/08/04 09:27:40;;;;;;;4.13;3.83;;;19.60;99.90;;;;;;3578191;40;20234;-43
2021/08/04 09:30:09;;;;;;;7.15;3.92;;;19.60;99.90;;;;;;3576937;40;20845;-43
2021/08/04 09:32:36;;;;;;;3.50;3.20;;;19.50;99.90;;;;;;3576737;40;20235;-43
2021/08/04 09:35:08;;;;;;;4.07;3.35;;;19.70;99.90;;;;;;3578039;40;20512;-43
2021/08/04 09:37:35;;;;;;;4.40;3.47;;;19.60;99.90;;;;;;3577453;40;20242;-43
2021/08/04 09:40:05;;;;;;;6.40;3.92;;;19.80;99.90;;;;;;3577574;40;20244;-43
2021/08/04 09:42:45;;;;;;;3.80;3.50;;;20.00;99.90;;;;;;3578637;40;20239;-43
2021/08/04 09:45:13;;;;;;;5.20;3.53;;;20.10;99.90;;;;;;3577471;40;20607;-43
2021/08/04 09:47:55;;;;;;;3.45;3.15;;;20.50;99.90;;;;;;3577260;40;20239;-43
2021/08/04 09:50:23;;;;;;;3.17;2.95;;;20.60;99.90;;;;;;3578312;40;20241;-43
2021/08/04 09:52:55;;;;;;;3.50;3.20;;;20.90;99.90;;;;;;3577893;40;20279;-44
2021/08/04 09:55:24;;;;;;;3.53;3.25;;;21.20;99.90;;;;;;3577703;40;20242;-43
2021/08/04 09:57:55;;;;;;;3.63;3.30;;;21.40;99.90;;;;;;3577814;40;20267;-43
2021/08/04 10:00:23;;;;;;;6.97;4.68;;;21.60;99.90;;;;;;3577849;40;20231;-43
2021/08/04 10:02:52;;;;;;;4.53;3.70;;;21.80;99.90;;;;;;3577184;40;20238;-43
2021/08/04 10:05:21;;;;;;;3.75;3.47;;;21.70;99.90;;;;;;3577611;40;20243;-43
2021/08/04 10:08:04;;;;;;;4.15;3.67;;;22.10;99.90;;;;;;3577656;40;20232;-43
2021/08/04 10:10:34;;;;;;;4.22;3.38;;;22.20;99.90;;;;;;3577611;40;20235;-43
2021/08/04 10:13:03;;;;;;;5.55;3.38;;;22.10;99.90;;;;;;3578872;40;20238;-43
2021/08/04 10:15:38;;;;;;;11.35;4.40;;;22.20;99.90;;;;;;3578078;40;20320;-43
2021/08/04 10:18:08;;;;;;;5.75;4.22;;;22.20;99.90;;;;;;3578820;40;20646;-44
2021/08/04 10:20:37;;;;;;;4.03;3.60;;;22.30;99.90;;;;;;3579145;40;20247;-43
2021/08/04 10:23:04;;;;;;;4.55;4.15;;;22.20;99.90;;;;;;3579286;40;20247;-43
2021/08/04 10:25:34;;;;;;;5.60;4.28;;;22.60;99.90;;;;;;3578795;40;20239;-43
2021/08/04 10:28:03;;;;;;;4.68;4.28;;;23.00;99.90;;;;;;3578386;40;20272;-43
2021/08/04 10:30:30;;;;;;;5.20;4.28;;;23.00;99.90;;;;;;3579068;40;20235;-43
2021/08/04 10:32:57;;;;;;;5.03;4.57;;;23.10;99.90;;;;;;3579010;40;20247;-43
2021/08/04 10:35:25;;;;;;;5.93;3.80;;;23.10;99.90;;;;;;3569496;40;20243;-43
2021/08/04 10:37:54;;;;;;;4.65;3.30;;;23.20;99.90;;;;;;3578736;40;20239;-43
2021/08/04 10:40:24;;;;;;;6.28;3.22;;;23.40;99.90;;;;;;3578572;40;20259;-44
2021/08/04 10:42:53;;;;;;;5.93;3.67;;;23.20;99.90;;;;;;3569153;40;20235;-44
2021/08/04 10:45:32;;;;;;;4.90;4.03;;;23.40;99.90;;;;;;3578146;40;20245;-45
2021/08/04 10:48:24;;;;;;;4.40;4.00;;;23.10;99.90;;;;;;3578130;40;20242;-43
2021/08/04 10:51:14;;;;;;;4.13;3.67;;;23.20;99.90;;;;;;3579021;40;20243;-43
2021/08/04 10:54:13;;;;;;;7.22;4.47;;;23.50;99.90;;;;;;3579212;40;20250;-43
2021/08/04 10:57:10;;;;;;;6.72;5.53;;;23.50;99.90;;;;;;3578126;40;20320;-44
2021/08/04 10:59:42;;;;;;;7.07;5.30;;;23.50;99.90;;;;;;3574239;40;20312;-43
2021/08/04 11:02:30;;;;;;;5.07;4.22;;;23.70;99.90;;;;;;3578609;40;20246;-43
2021/08/04 11:04:58;;;;;;;6.53;4.18;;;23.50;99.90;;;;;;3578571;40;20247;-43
2021/08/04 11:07:25;;;;;;;4.93;3.22;;;23.60;99.90;;;;;;3578297;40;20235;-43
2021/08/04 11:10:06;;;;;;;5.03;3.47;;;23.40;99.90;;;;;;3579418;40;20250;-43
2021/08/04 11:12:47;;;;;;;4.53;4.18;;;23.60;99.90;;;;;;3578779;40;20234;-44
2021/08/04 11:15:31;;;;;;;4.85;4.47;;;23.80;99.90;;;;;;3579662;40;20239;-43
2021/08/04 11:18:03;;;;;;;4.80;3.95;;;23.90;99.90;;;;;;3578550;40;20864;-42
2021/08/04 11:20:31;;;;;;;4.32;3.92;;;23.80;99.90;;;;;;3579794;40;20250;-43
2021/08/04 11:22:58;;;;;;;3.88;3.08;;;23.50;99.90;;;;;;3578527;40;20239;-44
2021/08/04 11:25:41;;;;;;;6.10;3.50;;;23.50;99.90;;;;;;3579459;40;20241;-43
2021/08/04 11:28:11;;;;;;;3.72;3.42;;;23.60;99.90;;;;;;3578034;40;20239;-44
2021/08/04 11:30:42;;;;;;;3.90;3.60;;;23.90;99.90;;;;;;3578188;40;20324;-43
2021/08/04 11:33:32;;;;;;;4.45;3.50;;;23.80;99.90;;;;;;3581188;40;20249;-43
2021/08/04 11:36:08;;;;;;;6.05;3.58;;;23.90;99.90;;;;;;3582745;40;20537;-43
2021/08/04 11:38:39;;;;;;;5.32;3.95;;;24.00;99.90;;;;;;3578392;40;20249;-44
2021/08/04 11:41:19;;;;;;;4.43;3.85;;;23.90;99.90;;;;;;3578493;40;20246;-43
2021/08/04 11:43:47;;;;;;;5.93;3.92;;;23.70;99.90;;;;;;3578313;40;20509;-43
2021/08/04 11:46:41;;;;;;;7.05;3.38;;;24.10;99.90;;;;;;3578133;40;20633;-43
2021/08/04 11:49:12;;;;;;;3.67;3.35;;;24.30;99.90;;;;;;3576856;40;20239;-44
2021/08/04 11:51:43;;;;;;;4.07;2.70;;;24.20;99.90;;;;;;3578752;40;20239;-44
2021/08/04 11:54:11;;;;;;;4.40;3.33;;;24.00;99.90;;;;;;3578491;40;20498;-43
2021/08/04 11:56:49;;;;;;;3.83;3.53;;;24.20;99.90;;;;;;3578757;40;20247;-43
2021/08/04 11:59:16;;;;;;;4.68;4.25;;;24.40;99.90;;;;;;3578108;40;20266;-44
2021/08/04 12:01:59;;;;;;;5.13;3.80;;;24.30;99.90;;;;;;3577811;40;20615;-43
2021/08/04 12:04:27;;;;;;;6.85;3.80;;;24.50;99.90;;;;;;3578394;40;20601;-43
2021/08/04 12:07:05;;;;;;;5.13;3.22;;;24.50;99.90;;;;;;3577705;40;20242;-44
2021/08/04 12:09:34;;;;;;;5.15;3.65;;;24.70;99.90;;;;;;3578324;40;20245;-43
2021/08/04 12:12:04;;;;;;;7.22;4.03;;;24.70;99.90;;;;;;3578210;40;20246;-43
2021/08/04 12:14:33;;;;;;;6.22;3.13;;;24.50;99.90;;;;;;3577849;40;20234;-44
2021/08/04 12:17:03;;;;;;;4.10;3.22;;;24.50;99.90;;;;;;3577839;40;20234;-44
2021/08/04 12:19:36;;;;;;;3.30;3.00;;;24.30;99.90;;;;;;3569744;40;20239;-44
2021/08/04 12:22:06;;;;;;;3.67;3.10;;;24.60;99.90;;;;;;3578507;40;20336;-46
2021/08/04 12:24:41;;;;;;;4.03;3.60;;;24.60;99.90;;;;;;3577715;40;20239;-43
2021/08/04 12:27:08;;;;;;;4.03;3.67;;;24.50;99.90;;;;;;3577960;40;20589;-43
2021/08/04 12:29:36;;;;;;;4.28;3.78;;;24.40;99.90;;;;;;3568648;40;20231;-43
2021/08/04 12:32:16;;;;;;;7.47;3.92;;;24.10;99.90;;;;;;3578764;40;20270;-44
2021/08/04 12:34:57;;;;;;;3.83;3.53;;;24.40;99.90;;;;;;3577834;40;20246;-43
2021/08/04 12:37:25;;;;;;;5.45;3.50;;;24.20;99.90;;;;;;3577529;40;20279;-43
2021/08/04 12:39:53;;;;;;;4.68;4.07;;;24.40;99.90;;;;;;3577872;40;20239;-43
2021/08/04 12:42:20;;;;;;;4.97;4.13;;;24.70;99.90;;;;;;3577908;40;20236;-43
2021/08/04 12:44:47;;;;;;;4.55;2.88;;;25.40;99.90;;;;;;3578241;40;20532;-43
2021/08/04 12:47:17;;;;;;;2.75;2.30;;;25.80;99.90;;;;;;3578050;40;20261;-43
2021/08/04 12:49:45;;;;;;;4.97;2.90;;;26.10;99.90;;;;;;3577682;40;20239;-43
2021/08/04 12:52:13;;;;;;;7.93;3.20;;;26.40;99.90;;;;;;3578304;40;20235;-44
2021/08/04 12:54:41;;;;;;;6.63;2.90;;;26.70;99.90;;;;;;3577840;40;20247;-43
2021/08/04 12:57:20;;;;;;;4.82;2.72;;;26.70;99.90;;;;;;3577697;40;20641;-43